Hlavní strana
METAR-TAF:

METAR-TAF

Letiště :

Treviso, Itálie

zeměpisná šířka: 45-39N, zeměpisná délka: 012-11E, výška: 18 m

Aktuální stav počasí

Zpráva byla vytvořena před 12 minutami, v 13:50 UTC
Východní vítr 11 kt
Teplota 12°C
Vlhkost vzduchu 50%
Tlak 1010 hPa
Viditelnost 10 km a více
Žádná oblačnost pod 1500 m, nevyskytují se cumulonimby.

METAR: LIPH 241350Z 10011KT CAVOK 12/02 Q1010

Čas: 15:02 (14:02 UTC)

Předpověď počasí

Zpráva byla vytvořena před 3 hodinami a 2 minutami, v 11:00 UTC
Předpověď platná od 24 v 12 UTC do 25 v 12 UTC
Východoseverovýchodní vítr 15 kt
Viditelnost: 8000 m
Oblačno až skoro zataženo ve výšce 2000 ft

TAF: LIPH 241100Z 2412/2512 06015KT 8000 BKN020

Stav a předpovědi počasí z více než 4 000 letišť (zprávy METAR a TAF).

Červené a žluté tečky na mapě představují dostupné meteorologické stanice.

Když kurzor umístíte na tečku, zobrazí se název stanice.

Pak kliknutím zobrazíte stav a předpověď počasí.

Chcete-li změnit mapu, kliknutím na zelené tlačítko se znaménkem +mapu přiblížíte, kliknutím na zelené tlačítko se znaménkem – mapu oddálíte a kliknutím na zelené šipky přejdete na sousední mapy.


METAR-TAF: